x

Norfolk, Va (44059) Weather Station

6:50pm - Sun 1st Feb 2015 All times are EST. -5 hours from GMT.

  • Wind
    7mph, 11mph gusts
  • Air Temp 45°f
  • Sea Pressure 1017.6mb
  • Norfolk, Va
  • Norfolk, Va

More Historic Weather Station data

Upgrade to MSW Pro to gain access to the past 30 days of data for over 8000 Wavebouys and Weather Stations around the globe.

Join Pro

Comparision Forecast

View Surf forecast
   
Sun 02/01 6:50pm 7 11 mph 1017.6mb - 45f
6:40pm 7 11 mph 1018mb - 45f
6:30pm 7 11 mph 1018mb - 45f
6:20pm 7 9 mph 1018.2mb - 45f
6:10pm 7 9 mph 1018.4mb - 45f
6:00pm 7 11 mph 1018.4mb 41f 45f
5:50pm 9 11 mph 1018.6mb - 45f
5:40pm 7 9 mph 1018.6mb - 45f
5:30pm 7 9 mph 1018.8mb - 45f
5:20pm 7 11 mph 1018.8mb - 45f
5:10pm 7 9 mph 1018.8mb - 46f
5:00pm 7 11 mph 1019mb 41f 46f
4:50pm 7 9 mph 1019.1mb - 46f
4:40pm 9 11 mph 1019.3mb - 46f
4:30pm 7 9 mph 1019.2mb - 46f
4:20pm 7 9 mph 1019.4mb - 46f
4:10pm 7 11 mph 1019.4mb - 46f
4:00pm 7 9 mph 1019.8mb 41f 46f
3:50pm 7 9 mph 1019.9mb - 46f
3:40pm 7 11 mph 1019.9mb - 46f
3:30pm 7 9 mph 1020mb - 46f
3:20pm 7 9 mph 1020.1mb - 46f
3:10pm 7 11 mph 1020.2mb - 46f
3:00pm 7 11 mph 1020.3mb 41f 46f
2:50pm 7 11 mph 1020.5mb - 46f
2:40pm 9 13 mph 1020.7mb - 46f
2:30pm 7 11 mph 1020.9mb - 46f
2:20pm 9 11 mph 1020.9mb - 46f
2:10pm 9 11 mph 1020.9mb - 46f
2:00pm 7 11 mph 1020.9mb 41f 45f
1:50pm 7 11 mph 1020.8mb - 45f
1:40pm 7 11 mph 1021.2mb - 45f
1:30pm 7 9 mph 1021.5mb - 45f
1:20pm 4 9 mph 1021.7mb - 45f
1:10pm 4 9 mph 1022.1mb - 44f
1:00pm 7 9 mph 1022.3mb 41f 44f
12:50pm 4 7 mph 1022.6mb - 44f
12:40pm 7 11 mph 1022.9mb - 44f
12:30pm 7 11 mph 1023.1mb - 44f
12:20pm 7 9 mph 1023.3mb - 44f
12:10pm 7 11 mph 1023.5mb - 43f
12:00pm 7 9 mph 1023.8mb 41f 43f
11:50am 7 11 mph 1024.2mb - 43f
11:40am 7 13 mph 1024.4mb - 43f
11:30am 7 11 mph 1024.5mb - 42f
11:20am 9 11 mph 1024.5mb - 41f
11:10am 7 11 mph 1024.5mb - 41f
11:00am 7 9 mph 1024.7mb 40f 40f
10:50am 7 9 mph 1024.8mb - 40f
10:40am 9 11 mph 1024.7mb - 40f
10:30am 9 11 mph 1024.7mb - 39f
10:20am 7 11 mph 1024.8mb - 39f
10:10am 7 9 mph 1025mb - 39f
10:00am 7 11 mph 1025mb 40f 39f
9:50am 7 9 mph 1024.9mb - 38f
9:40am 7 9 mph 1025mb - 37f
9:30am 7 9 mph 1025mb - 37f
9:20am 7 9 mph 1025mb - 37f
9:10am 7 9 mph 1025.1mb - 37f
9:00am 7 11 mph 1025mb 40f 37f
8:50am 4 9 mph 1025mb - 37f
8:40am 2 4 mph 1025mb - 36f
8:30am 2 4 mph 1025.2mb - 35f
8:20am 2 4 mph 1025.2mb - 34f
8:10am 2
mph
1025.3mb - 33f
8:00am  -  2 mph 1025.2mb 39f 32f
7:50am  -  2 mph 1025.2mb - 32f
7:40am 2 4 mph 1025.3mb - 32f
7:30am 2 4 mph 1025.2mb - 32f
7:20am 2 4 mph 1024.8mb - 32f
7:10am 4
mph
1024.7mb - 32f
7:00am 2 4 mph 1024.8mb 39f 32f
6:50am 2
mph
1024.9mb - 32f
6:40am 2 4 mph 1024.7mb - 33f
6:30am  -  2 mph 1024.8mb - 33f
6:20am  -  2 mph 1024.8mb - 33f
6:10am 2
mph
1024.8mb - 33f
6:00am 2
mph
1024.8mb 39f 33f
5:50am  -  2 mph 1024.8mb - 32f
5:40am 2
mph
1024.6mb - 32f
5:30am  -  2 mph 1024.5mb - 33f
5:20am  -  2 mph 1024.4mb - 33f
5:10am 2
mph
1024.5mb - 33f
5:00am 2 4 mph 1024.3mb 40f 34f
4:50am 4
mph
1024.2mb - 33f
4:40am 4 7 mph 1024.2mb - 33f
4:30am 2 4 mph 1023.9mb - 33f
4:20am 2 4 mph 1023.9mb - 33f
4:10am 4 7 mph 1023.8mb - 33f
4:00am 2 4 mph 1023.8mb 40f 33f
3:50am 2 4 mph 1024mb - 32f
3:40am 2 4 mph 1023.9mb - 32f
3:30am  -  2 mph 1023.8mb - 32f
3:20am  -  2 mph 1023.9mb - 32f
3:10am  -  2 mph 1024mb - 32f
3:00am 2 4 mph 1023.9mb 40f 32f
2:50am 2 4 mph 1024mb - 32f
2:40am 2 4 mph 1023.8mb - 32f
2:30am 4
mph
1023.8mb - 31f
2:20am 2 4 mph 1023.8mb - 31f
2:10am 4
mph
1024mb - 31f
2:00am 4 7 mph 1023.9mb 40f 31f
1:50am 4
mph
1023.8mb - 31f
1:40am 4
mph
1023.8mb - 31f
1:30am 2 4 mph 1023.7mb - 31f
1:20am 4
mph
1023.7mb - 31f
1:10am 4
mph
1023.8mb - 31f
1:00am 4
mph
1023.9mb 40f 31f
12:50am 4 7 mph 1024mb - 31f
12:40am 4
mph
1024mb - 31f
12:30am 4
mph
1024.1mb - 31f
12:20am 4
mph
1024.2mb - 31f
12:10am 4 7 mph 1024.2mb - 32f
12:00am 4
mph
1024.2mb 40f 32f
Sat 01/31 11:50pm 4 7 mph 1024.3mb - 32f
11:40pm 2 4 mph 1024.4mb - 32f
11:30pm 2 4 mph 1024.5mb - 32f
11:20pm 2 4 mph 1024.5mb - 32f
11:10pm 4 7 mph 1024.6mb - 32f
11:00pm 4 7 mph 1024.6mb 40f 33f
10:50pm 4
mph
1024.7mb - 33f
10:40pm 2 4 mph 1024.6mb - 33f
10:30pm 2 4 mph 1024.7mb - 33f
10:20pm 2 4 mph 1024.7mb - 33f
10:10pm 2
mph
1024.7mb - 33f
10:00pm 2 4 mph 1024.8mb 40f 33f
9:50pm 2 4 mph 1024.8mb - 33f
9:40pm 2 4 mph 1024.9mb - 33f
9:30pm 2 4 mph 1025mb - 34f
9:20pm 2 4 mph 1025.1mb - 34f
9:10pm 4
mph
1025.1mb - 34f
9:00pm  -  2 mph 1025.1mb 40f 33f
8:50pm  -  2 mph 1025.2mb - 34f
8:40pm 2 4 mph 1025.2mb - 34f
8:30pm 2 4 mph 1025.1mb - 34f
8:20pm  -  2 mph 1025.2mb - 33f
8:10pm  -  2 mph 1025.3mb - 33f
8:00pm 2
mph
1025.3mb 40f 34f
7:50pm 2 4 mph 1025.4mb - 34f
7:40pm 2
mph
1025.4mb - 34f
7:30pm 2
mph
1025.2mb - 34f
7:20pm 2
mph
1025.2mb - 34f
7:10pm 2 4 mph 1025.1mb - 35f
7:00pm  -  2 mph 1025.1mb 40f 35f
6:50pm 2 4 mph 1025.1mb - 36f
6:40pm 2
mph
1025mb - 36f
6:10pm 2 4 mph 1024.9mb - 37f
6:00pm 2 4 mph 1024.8mb 40f 37f
5:50pm 4
mph
1024.7mb - 37f
5:40pm 4 7 mph 1024.7mb - 37f
5:30pm 4 9 mph 1024.6mb - 37f
5:20pm 7 9 mph 1024.5mb - 37f
5:10pm 7 9 mph 1024.5mb - 37f
5:00pm 7 9 mph 1024.5mb 40f 37f
4:50pm 7 9 mph 1024.5mb - 38f
4:40pm 7 9 mph 1024.3mb - 38f
4:30pm 7 11 mph 1024.3mb - 38f
4:20pm 7 11 mph 1024.2mb - 38f
4:10pm 7 11 mph 1024.2mb - 38f
4:00pm 7 11 mph 1024.3mb 40f 37f
3:50pm 9 11 mph 1024.3mb - 37f
3:40pm 9 13 mph 1024.2mb - 37f
3:30pm 9 13 mph 1024.2mb - 37f
3:20pm 9 13 mph 1024.3mb - 37f
3:10pm 9 16 mph 1024.4mb - 36f
3:00pm 11 16 mph 1024.4mb 41f 36f
2:50pm 11 16 mph 1024.4mb - 36f
2:40pm 11 18 mph 1024.5mb - 35f
2:30pm 11 16 mph 1024.5mb - 35f
2:20pm 11 18 mph 1024.5mb - 35f
2:10pm 11 18 mph 1024.5mb - 35f
2:00pm 11 16 mph 1024.7mb 41f 34f
1:50pm 11 16 mph 1024.8mb - 34f
1:40pm 11 18 mph 1024.8mb - 34f
1:30pm 11 18 mph 1024.8mb - 33f
1:20pm 9 16 mph 1024.8mb - 33f
1:10pm 11 16 mph 1025mb - 32f
1:00pm 9 16 mph 1025.3mb 41f 32f
12:50pm 9 16 mph 1025.5mb - 31f
12:40pm 9 13 mph 1025.7mb - 31f
12:30pm 11 16 mph 1025.9mb - 31f
12:20pm 11 16 mph 1026.2mb - 31f
12:10pm 11 16 mph 1026.4mb - 31f
12:00pm 9 13 mph 1026.5mb 39f 30f
11:50am 11 16 mph 1026.6mb - 30f
11:40am 11 16 mph 1026.9mb - 29f
11:30am 13 20 mph 1027.1mb - 29f
11:20am 13 20 mph 1027.3mb - 29f
11:10am 11 20 mph 1027.3mb - 29f
11:00am 13 18 mph 1027.2mb 40f 29f
10:50am 16 22 mph 1027.2mb - 28f
10:40am 13 20 mph 1027.2mb - 28f
10:30am 13 20 mph 1027.2mb - 28f
10:20am 16 22 mph 1027.1mb - 28f
10:10am 13 20 mph 1027mb - 28f
10:00am 11 18 mph 1026.8mb 39f 28f
9:50am 11 18 mph 1026.6mb - 27f
9:40am 11 20 mph 1026.6mb - 27f
9:30am 13 20 mph 1026.4mb - 27f
9:20am 13 20 mph 1026.4mb - 27f
9:10am 13 18 mph 1026.4mb - 27f
9:00am 13 20 mph 1026.5mb 39f 26f
8:50am 13 22 mph 1026.5mb - 26f
8:40am 16 22 mph 1026.4mb - 25f
8:30am 16 25 mph 1026.3mb - 25f
8:20am 13 20 mph 1026.3mb - 26f
8:10am 13 20 mph 1026.2mb - 25f
8:00am 13 22 mph 1026.1mb 39f 25f
7:50am 13 20 mph 1026mb - 25f
7:40am 16 25 mph 1026mb - 25f
7:30am 16 25 mph 1025.8mb - 25f
7:20am 13 20 mph 1025.7mb - 25f
7:10am 13 20 mph 1025.6mb - 25f
7:00am 13 20 mph 1025.4mb 39f 25f
6:50am 16 22 mph 1025.3mb - 25f
6:40am 16 25 mph 1025.1mb - 25f
6:30am 16 22 mph 1025mb - 25f
6:20am 13 20 mph 1024.9mb - 25f
6:10am 13 20 mph 1024.8mb - 25f
6:00am 13 22 mph 1024.7mb 38f 25f
5:50am 18 25 mph 1024.5mb - 25f
5:40am 18 25 mph 1024.4mb - 26f
5:30am 16 22 mph 1024.3mb - 26f
5:20am 18 25 mph 1024.3mb - 26f
5:10am 18 25 mph 1024.2mb - 26f
5:00am 20 29 mph 1024.1mb 39f 26f
4:50am 20 29 mph 1024mb - 26f
4:40am 18 22 mph 1024mb - 26f
4:30am 18 29 mph 1024mb - 26f
4:20am 18 25 mph 1024mb - 26f
4:10am 18 27 mph 1024mb - 26f
4:00am 20 29 mph 1024mb 40f 27f
3:50am 18 27 mph 1024mb - 27f
3:40am 20 29 mph 1023.9mb - 27f
3:30am 18 29 mph 1023.7mb - 27f
3:20am 20 29 mph 1023.8mb - 27f
3:10am 18 29 mph 1023.9mb - 27f
3:00am 16 25 mph 1023.8mb 40f 27f
2:50am 18 27 mph 1023.5mb - 27f
2:40am 18 25 mph 1023.6mb - 27f
2:30am 20 29 mph 1023.6mb - 28f
2:20am 20 27 mph 1023.5mb - 28f
2:10am 16 27 mph 1023.6mb - 28f
2:00am 18 27 mph 1023.6mb 40f 28f
1:50am 18 25 mph 1023.5mb - 28f
1:40am 16 25 mph 1023.4mb - 28f
1:30am 16 25 mph 1023.4mb - 28f
1:20am 16 22 mph 1023.3mb - 28f
1:10am 16 22 mph 1023.3mb - 28f
1:00am 18 27 mph 1023.4mb 40f 28f
12:50am 20 27 mph 1023.4mb - 29f
12:40am 16 22 mph 1023.3mb - 29f
12:30am 18 27 mph 1023.2mb - 29f
12:20am 18 25 mph 1023mb - 29f
12:10am 18 29 mph 1022.9mb - 29f
12:00am 18 29 mph 1022.8mb 41f 30f
Fri 01/30 11:50pm 20 29 mph 1022.7mb - 30f
11:40pm 20 31 mph 1022.7mb - 30f
11:30pm 18 29 mph 1022.5mb - 31f
11:20pm 18 25 mph 1022.3mb - 31f
11:10pm 20 29 mph 1022.2mb - 31f
11:00pm 20 31 mph 1022.1mb 40f 31f
10:50pm 18 31 mph 1022mb - 32f
10:40pm 16 29 mph 1022.1mb - 32f
10:30pm 13 22 mph 1021.9mb - 32f
10:20pm 16 22 mph 1021.8mb - 32f
10:10pm 18 29 mph 1021.7mb - 33f
10:00pm 18 27 mph 1021.6mb 41f 33f
9:50pm 18 29 mph 1021.6mb - 33f
9:40pm 22 31 mph 1021.5mb - 33f
9:30pm 20 29 mph 1021.4mb - 34f
9:20pm 18 25 mph 1021.2mb - 34f
9:10pm 16 22 mph 1021.1mb - 35f
9:00pm 16 25 mph 1020.9mb 41f 35f
8:50pm 18 25 mph 1020.8mb - 35f
8:40pm 18 27 mph 1020.6mb - 35f
8:30pm 18 25 mph 1020.5mb - 35f
8:20pm 20 27 mph 1020.3mb - 35f
8:10pm 20 29 mph 1020.1mb - 36f
8:00pm 20 31 mph 1019.9mb 41f 36f
7:50pm 20 29 mph 1019.7mb - 36f
7:40pm 22 31 mph 1019.6mb - 36f
7:30pm 20 31 mph 1019.5mb - 37f
7:20pm 18 27 mph 1019.4mb - 37f
7:10pm 18 29 mph 1019.2mb - 37f
7:00pm 16 27 mph 1019.1mb 41f 38f
6:50pm 18 22 mph 1018.9mb - 38f
6:40pm 18 25 mph 1018.9mb - 38f
6:30pm 16 25 mph 1018.8mb - 38f
6:20pm 18 25 mph 1018.6mb - 38f
6:10pm 16 25 mph 1018.4mb - 39f
6:00pm 18 27 mph 1018.2mb 41f 39f
5:50pm 18 27 mph 1018mb - 39f
5:40pm 18 27 mph 1017.8mb - 40f
5:30pm 18 25 mph 1017.5mb - 40f
5:20pm 18 22 mph 1017.1mb - 40f
5:10pm 18 27 mph 1016.9mb - 40f
5:00pm 18 25 mph 1016.6mb 42f 41f
4:50pm 11 18 mph 1016.3mb - 41f
4:20pm 9 16 mph 1016.1mb - 41f
4:10pm 9 11 mph 1016mb - 40f
4:00pm 11 18 mph 1016.1mb 42f 40f
3:50pm 13 16 mph 1016mb - 39f
3:40pm 18 27 mph 1016mb - 39f
3:30pm 13 22 mph 1015.9mb - 39f
3:20pm 16 20 mph 1015.8mb - 39f
3:10pm 11 18 mph 1015.6mb - 40f
3:00pm 9 18 mph 1015.4mb 42f 41f
2:50pm 11 20 mph 1015.4mb - 40f
2:40pm 9 16 mph 1015.5mb - 40f
2:30pm 13 20 mph 1015.4mb - 40f
2:20pm 16 22 mph 1015.3mb - 41f
2:10pm 18 22 mph 1015.1mb - 41f
2:00pm 20 27 mph 1015mb 42f 41f
1:50pm 16 25 mph 1014.9mb - 42f
1:40pm 11 18 mph 1014.7mb - 42f
1:30pm 9 16 mph 1014.7mb - 42f
1:20pm 13 18 mph 1014.8mb - 42f
1:10pm 13 20 mph 1014.9mb - 42f
1:00pm 13 20 mph 1015mb 42f 42f
12:50pm 13 18 mph 1015mb - 42f
12:40pm 11 18 mph 1015mb - 42f
12:30pm 13 22 mph 1015.1mb - 42f
12:20pm 11 18 mph 1015.2mb - 42f
12:10pm 11 16 mph 1015.2mb - 42f
11:50am 11 16 mph 1015.4mb - 41f
11:10am 16 20 mph 1015.7mb - 41f
11:00am 16 25 mph 1015.6mb 42f 41f
10:50am 16 22 mph 1015.7mb - 41f
10:40am 16 20 mph 1015.6mb - 41f
10:30am 18 22 mph 1015.6mb - 41f
10:20am 11 22 mph 1015.4mb - 41f
10:10am 4 9 mph 1015.4mb - 40f
10:00am 7 9 mph 1015.3mb 41f 40f
9:50am 4 7 mph 1015.3mb - 40f
9:40am 4 7 mph 1015.1mb - 40f
9:30am 4
mph
1014.9mb - 40f
9:20am 4 7 mph 1014.8mb - 40f
9:10am 4 7 mph 1014.6mb - 40f
9:00am 4 7 mph 1014.2mb 41f 40f
8:50am 2 7 mph 1014.1mb - 40f
8:40am 4 7 mph 1014.3mb - 40f
8:30am 4 7 mph 1013.9mb - 40f
8:20am 2 4 mph 1014mb - 40f
8:10am 4 7 mph 1014.2mb - 40f
8:00am 4
mph
1014mb 41f 40f
7:50am 2 4 mph 1013.9mb - 40f
7:40am 2 7 mph 1013.8mb - 40f
7:30am 4
mph
1013.6mb - 40f
7:20am 4 7 mph 1013.5mb - 40f
7:10am 4 9 mph 1013.5mb - 40f
7:00am 7 9 mph 1013.2mb 41f 40f
6:50am 4 7 mph 1012.9mb - 40f
6:40am 4 7 mph 1012.7mb - 40f
6:30am 2 7 mph 1012.6mb - 41f
6:20am 4 7 mph 1012.5mb - 41f
6:10am 2 7 mph 1012.1mb - 41f
6:00am 2 7 mph 1012mb 41f 41f
5:50am 4 9 mph 1012.1mb - 42f
5:40am 7 11 mph 1012.1mb - 42f
5:30am 4 13 mph 1012.1mb - 43f
5:20am 7 13 mph 1011.9mb - 43f
5:10am 9 16 mph 1011.9mb - 44f
5:00am 9 20 mph 1011.9mb 41f 44f
4:50am 7 13 mph 1011.9mb - 45f
4:40am 9 13 mph 1011.8mb - 45f
4:30am 9 13 mph 1011.9mb - 45f
4:20am 9 13 mph 1011.9mb - 45f
4:10am 7 11 mph 1012mb - 45f
4:00am 7 16 mph 1012.1mb 41f 44f
3:50am 7 9 mph 1012.2mb - 44f
3:40am 7 11 mph 1012.2mb - 44f
3:30am 7 13 mph 1012.3mb - 44f
3:20am 7 9 mph 1012.5mb - 44f
3:10am 7 9 mph 1012.6mb - 44f
3:00am 7 13 mph 1012.9mb 41f 44f
2:50am 7 11 mph 1013mb - 43f
2:40am 9 11 mph 1013.1mb - 43f
2:30am 9 16 mph 1013.1mb - 43f
2:20am 9 13 mph 1013.2mb - 43f
2:10am 9 11 mph 1013.5mb - 43f
2:00am 9 13 mph 1013.6mb 41f 42f
1:50am 9 13 mph 1013.8mb - 42f
1:40am 11 16 mph 1013.9mb - 42f
1:30am 9 13 mph 1014mb - 41f
1:20am 9 11 mph 1014.2mb - 41f
1:10am 9 13 mph 1014.4mb - 41f
1:00am 9 13 mph 1014.7mb 41f 41f
12:50am 9 11 mph 1014.8mb - 41f
12:40am 9 13 mph 1015mb - 41f
12:30am 11 16 mph 1015.2mb - 42f
12:20am 11 16 mph 1015.3mb - 41f
12:10am 11 16 mph 1015.3mb - 41f
12:00am 11 18 mph 1015.5mb 41f 41f
Thu 01/29 11:50pm 11 16 mph 1015.6mb - 41f
11:40pm 11 16 mph 1016mb - 40f
11:30pm 9 16 mph 1016.3mb - 40f
11:20pm 11 13 mph 1016.5mb - 40f
11:10pm 9 13 mph 1016.8mb - 40f
11:00pm 9 13 mph 1017mb 41f 40f
10:50pm 9 11 mph 1017.3mb - 40f
10:40pm 7 11 mph 1017.4mb - 40f
10:30pm 7 11 mph 1017.6mb - 40f
10:20pm 7 9 mph 1017.8mb - 39f
10:10pm 7 9 mph 1017.9mb - 39f
10:00pm 7 11 mph 1018mb 42f 39f
9:50pm 9 11 mph 1018mb - 39f
9:40pm 7 11 mph 1018mb - 39f
9:30pm 9 11 mph 1018.1mb - 39f
9:20pm 9 11 mph 1018.1mb - 39f
9:10pm 9 13 mph 1018.1mb - 39f
9:00pm 9 11 mph 1018.2mb 42f 40f
8:50pm 7 11 mph 1018.2mb - 40f
8:40pm 9 13 mph 1018.3mb - 40f
8:30pm 9 13 mph 1018.3mb - 40f
8:20pm 9 13 mph 1018.3mb - 40f
8:10pm 9 18 mph 1018.4mb - 40f
8:00pm 11 13 mph 1018.4mb 42f 40f
7:50pm 9 16 mph 1018.5mb - 40f
7:40pm 9 13 mph 1018.5mb - 40f
7:30pm 9 13 mph 1018.9mb - 40f
7:20pm 9 13 mph 1019.1mb - 40f
7:10pm 9 13 mph 1019mb - 40f
7:00pm 9 11 mph 1019mb 41f 40f
6:50pm 9 16 mph 1019mb - 40f
6:40pm 9 13 mph 1019mb - 40f
6:30pm 9 16 mph 1019.3mb - 40f
6:20pm 9 13 mph 1019.4mb - 40f
6:10pm 9 13 mph 1019.5mb - 40f
6:00pm 9 16 mph 1019.5mb 42f 40f
5:50pm 9 16 mph 1019.6mb - 40f
5:40pm 9 13 mph 1019.7mb - 40f
5:30pm 9 13 mph 1019.6mb - 40f
5:20pm 9 16 mph 1019.7mb - 40f
5:10pm 9 13 mph 1019.8mb - 40f
5:00pm 9 13 mph 1020.5mb 42f 41f
4:50pm 9 13 mph 1020.6mb - 40f
4:40pm 7 11 mph 1020.5mb - 40f
4:30pm 9 13 mph 1020.7mb - 40f
4:20pm 7 11 mph 1021.2mb - 40f
4:10pm 7 11 mph 1021.1mb - 40f
4:00pm 7 11 mph 1021.1mb 42f 40f
3:50pm 7 11 mph 1021.7mb - 40f
3:40pm 7 11 mph 1021.5mb - 40f
3:30pm 9 11 mph 1021.3mb - 40f
3:20pm 7 13 mph 1021.6mb - 40f
3:10pm 7 11 mph 1021.8mb - 40f
2:50pm 4 9 mph 1021.9mb - 39f
1:50pm 4 9 mph 1022.8mb - 38f
1:40pm 4 7 mph 1022.9mb - 38f
1:30pm 4 7 mph 1023mb - 38f
1:20pm 4 9 mph 1023.2mb - 37f
12:30pm 7 9 mph 1024.6mb - 36f
12:20pm 4 9 mph 1024.9mb - 36f
12:10pm 4 9 mph 1025.2mb - 36f
11:50am 4 9 mph 1025.4mb - 35f
11:40am 4 9 mph 1025.5mb - 35f
11:30am 4 7 mph 1025.7mb - 35f
11:20am 4 9 mph 1026mb - 35f
11:10am 4 7 mph 1026.1mb - 35f
11:00am 4 7 mph 1026.2mb 42f 35f